Chalgrove, United Kingdom
Current Conditions -  °F | °C
As of 8:50 PM on Tuesday 27 Jan 2015 (Local Time) from EGUB Reporting Station
Overcast Overcast  
Wind Chill:   Ceiling: 2500
Heat Index:   Visibility: 6mi
Dew Point:   Wind: 8mph
Humidity: 76%   Direction: 230°SW
Pressure: 30.18"   Gusts: NA
Location:  51.66°N, 1.08°W
Report Text: EGUB 272050Z 23007KT 9999 OVC025 07/03 Q1022 BLU
Loading
Personal Weather Stations






























Interactive Weather Map New forecast layout! Learn more

10-Day Weather Forecast

Advertisements
Track Severe Weather on mobile